Time;durP1;ratioP1;P1;durP2;ratioP2;P2;SDS_P1;SDS_P2;PMS_P1;PMS_P2;Temp;Humidity;BMP_temperature;BMP_pressure;BME280_temperature;BME280_humidity;BME280_pressure;Samples;Min_cycle;Max_cycle;Signal;HPM_P1;HPM_P2
2023/06/16 00:01:35;;;;;;;7.03;4.43;;;;;;;;;;5033716;28;20099;-73
2023/06/16 00:04:03;;;;;;;8.13;4.13;;;;;;;;;;5039677;28;20075;-74
2023/06/16 00:06:30;;;;;;;9.93;4.45;;;;;;;;;;5032131;28;20076;-75
2023/06/16 00:08:57;;;;;;;8.85;4.20;;;;;;;;;;5032428;28;20032;-74
2023/06/16 00:11:23;;;;;;;11.20;4.97;;;;;;;;;;5032273;28;20144;-73
2023/06/16 00:13:50;;;;;;;8.23;4.63;;;;;;;;;;5031940;28;20100;-73
2023/06/16 00:16:20;;;;;;;8.30;4.18;;;;;;;;;;5032773;28;20434;-74
2023/06/16 00:18:47;;;;;;;14.32;4.80;;;;;;;;;;5030799;28;20049;-73
2023/06/16 00:21:14;;;;;;;8.20;4.80;;;;;;;;;;5032676;28;20400;-73
2023/06/16 00:23:41;;;;;;;8.25;4.20;;;;;;;;;;5031729;28;20021;-73
2023/06/16 00:26:07;;;;;;;8.52;4.18;;;;;;;;;;5032294;28;20029;-73
2023/06/16 00:28:33;;;;;;;10.68;4.35;;;;;;;;;;5032311;28;20024;-73
2023/06/16 00:30:59;;;;;;;9.00;4.18;;;;;;;;;;5032130;28;20462;-73
2023/06/16 00:33:26;;;;;;;8.68;4.13;;;;;;;;;;5030692;28;20025;-74
2023/06/16 00:35:52;;;;;;;11.32;4.60;;;;;;;;;;5031595;28;20372;-75
2023/06/16 00:38:18;;;;;;;9.57;4.38;;;;;;;;;;5031636;28;20037;-73
2023/06/16 00:40:44;;;;;;;8.73;4.40;;;;;;;;;;5031566;28;20036;-74
2023/06/16 00:43:10;;;;;;;7.82;4.70;;;;;;;;;;5030983;28;20112;-73
2023/06/16 00:45:36;;;;;;;14.52;5.00;;;;;;;;;;5031898;28;20029;-73
2023/06/16 00:48:02;;;;;;;9.30;4.38;;;;;;;;;;5036850;28;20018;-75
2023/06/16 00:50:28;;;;;;;7.68;4.30;;;;;;;;;;5037225;28;20059;-75
2023/06/16 00:52:55;;;;;;;10.77;4.60;;;;;;;;;;5031959;28;20030;-73
2023/06/16 00:55:21;;;;;;;7.93;4.50;;;;;;;;;;5031898;28;20032;-73
2023/06/16 00:57:51;;;;;;;10.57;4.90;;;;;;;;;;5031152;28;20029;-74
2023/06/16 01:00:17;;;;;;;12.77;4.65;;;;;;;;;;5032149;28;20104;-74
2023/06/16 01:02:46;;;;;;;8.70;5.05;;;;;;;;;;5031379;28;20109;-71
2023/06/16 01:05:16;;;;;;;9.25;4.95;;;;;;;;;;5032494;28;20052;-73
2023/06/16 01:07:42;;;;;;;10.45;5.07;;;;;;;;;;5032241;28;20048;-73
2023/06/16 01:10:14;;;;;;;9.27;4.72;;;;;;;;;;5032421;28;20120;-74
2023/06/16 01:12:50;;;;;;;7.70;4.97;;;;;;;;;;5031982;28;20025;-73
2023/06/16 01:15:18;;;;;;;10.77;4.78;;;;;;;;;;5033261;28;20029;-73
2023/06/16 01:17:46;;;;;;;8.90;4.82;;;;;;;;;;5033924;28;20140;-75
2023/06/16 01:20:30;;;;;;;10.00;4.47;;;;;;;;;;5034589;28;20026;-74
2023/06/16 01:23:14;;;;;;;7.72;4.57;;;;;;;;;;5031785;28;20029;-73
2023/06/16 01:25:42;;;;;;;10.10;4.57;;;;;;;;;;5032445;28;20030;-73
2023/06/16 01:28:09;;;;;;;9.43;5.07;;;;;;;;;;5033145;28;20272;-73
2023/06/16 01:30:36;;;;;;;14.43;5.05;;;;;;;;;;5037547;28;20364;-74
2023/06/16 01:33:03;;;;;;;10.93;5.03;;;;;;;;;;5032520;28;20024;-73
2023/06/16 01:35:30;;;;;;;10.00;4.25;;;;;;;;;;5031614;28;20025;-74
2023/06/16 01:37:57;;;;;;;8.07;4.78;;;;;;;;;;5032120;28;20021;-73
2023/06/16 01:40:24;;;;;;;9.02;4.50;;;;;;;;;;5032029;28;20052;-73
2023/06/16 01:42:52;;;;;;;8.77;5.00;;;;;;;;;;5029780;28;20296;-76
2023/06/16 01:45:19;;;;;;;12.93;4.78;;;;;;;;;;5032068;28;20025;-73
2023/06/16 01:47:45;;;;;;;10.45;5.20;;;;;;;;;;5032278;28;20025;-73
2023/06/16 01:50:12;;;;;;;9.00;4.57;;;;;;;;;;5035903;28;20021;-75
2023/06/16 01:52:44;;;;;;;12.43;5.00;;;;;;;;;;5032687;28;20092;-74
2023/06/16 01:55:10;;;;;;;11.93;5.05;;;;;;;;;;5008843;28;20030;-73
2023/06/16 01:57:36;;;;;;;14.52;5.30;;;;;;;;;;5010683;28;20073;-73
2023/06/16 02:00:12;;;;;;;11.73;4.97;;;;;;;;;;5029960;28;20479;-74
2023/06/16 02:02:41;;;;;;;10.45;4.60;;;;;;;;;;5029626;28;20386;-73
2023/06/16 02:05:10;;;;;;;9.95;4.85;;;;;;;;;;5030078;28;20064;-74
2023/06/16 02:07:38;;;;;;;12.07;5.32;;;;;;;;;;5029530;28;20075;-74
2023/06/16 02:10:05;;;;;;;7.90;5.22;;;;;;;;;;5029782;28;20112;-73
2023/06/16 02:12:32;;;;;;;10.57;5.38;;;;;;;;;;5029438;28;20017;-72
2023/06/16 02:14:58;;;;;;;10.25;6.03;;;;;;;;;;5030028;28;20506;-73
2023/06/16 02:17:26;;;;;;;12.02;6.90;;;;;;;;;;5030014;28;20033;-74
2023/06/16 02:19:54;;;;;;;9.43;5.97;;;;;;;;;;5030253;28;20083;-73
2023/06/16 02:22:20;;;;;;;9.18;5.50;;;;;;;;;;5030384;28;20036;-73
2023/06/16 02:24:47;;;;;;;9.68;5.60;;;;;;;;;;5030492;28;20029;-73
2023/06/16 02:27:13;;;;;;;12.15;5.97;;;;;;;;;;5029966;28;20030;-73
2023/06/16 02:29:40;;;;;;;11.80;6.07;;;;;;;;;;5029894;28;20463;-73
2023/06/16 02:32:06;;;;;;;19.10;7.20;;;;;;;;;;5029040;28;20140;-73
2023/06/16 02:34:32;;;;;;;11.18;6.35;;;;;;;;;;5029806;28;20048;-73
2023/06/16 02:37:00;;;;;;;15.15;5.78;;;;;;;;;;5030150;28;20103;-74
2023/06/16 02:39:26;;;;;;;12.75;6.00;;;;;;;;;;5029801;28;20036;-73
2023/06/16 02:41:52;;;;;;;12.40;6.05;;;;;;;;;;5029118;28;20025;-76
2023/06/16 02:44:18;;;;;;;11.50;5.78;;;;;;;;;;5029807;28;20041;-73
2023/06/16 02:46:44;;;;;;;13.63;5.78;;;;;;;;;;5030697;28;20457;-73
2023/06/16 02:49:12;;;;;;;10.27;6.32;;;;;;;;;;5030778;28;20056;-73
2023/06/16 02:51:38;;;;;;;12.05;6.63;;;;;;;;;;5029613;28;20017;-73
2023/06/16 02:54:04;;;;;;;11.98;6.80;;;;;;;;;;5029378;28;20038;-74
2023/06/16 02:56:30;;;;;;;14.93;6.82;;;;;;;;;;5029686;28;20116;-73
2023/06/16 02:58:56;;;;;;;11.25;6.57;;;;;;;;;;5029155;28;20229;-73
2023/06/16 03:01:24;;;;;;;11.27;6.50;;;;;;;;;;5029545;28;20022;-72
2023/06/16 03:03:51;;;;;;;13.02;6.35;;;;;;;;;;5028876;28;20025;-73
2023/06/16 03:06:17;;;;;;;18.02;6.72;;;;;;;;;;5030133;28;20021;-72
2023/06/16 03:08:43;;;;;;;12.18;6.00;;;;;;;;;;5030191;28;20120;-73
2023/06/16 03:11:09;;;;;;;14.70;6.60;;;;;;;;;;5030098;28;20036;-73
2023/06/16 03:13:35;;;;;;;10.27;6.60;;;;;;;;;;5032479;28;20026;-72
2023/06/16 03:16:03;;;;;;;11.13;6.47;;;;;;;;;;5034565;28;20468;-73
2023/06/16 03:18:29;;;;;;;15.82;6.65;;;;;;;;;;5038344;28;20021;-71
2023/06/16 03:20:55;;;;;;;11.98;6.75;;;;;;;;;;5039657;28;20025;-73
2023/06/16 03:23:21;;;;;;;11.93;6.85;;;;;;;;;;5035197;28;20061;-72
2023/06/16 03:25:47;;;;;;;13.95;6.72;;;;;;;;;;5033165;28;20506;-74
2023/06/16 03:28:13;;;;;;;14.63;6.85;;;;;;;;;;5033285;28;20018;-73
2023/06/16 03:30:40;;;;;;;10.35;6.80;;;;;;;;;;5033122;28;20033;-73
2023/06/16 03:33:06;;;;;;;14.25;6.70;;;;;;;;;;5032377;28;20391;-74
2023/06/16 03:35:32;;;;;;;11.75;6.70;;;;;;;;;;5033079;28;20018;-73
2023/06/16 03:37:58;;;;;;;9.80;7.03;;;;;;;;;;5032541;28;20036;-73
2023/06/16 03:40:24;;;;;;;10.20;6.55;;;;;;;;;;5032664;28;20037;-72
2023/06/16 03:42:51;;;;;;;14.75;7.32;;;;;;;;;;5033545;28;20029;-71
2023/06/16 03:45:17;;;;;;;14.05;8.13;;;;;;;;;;5036407;28;20025;-75
2023/06/16 03:47:43;;;;;;;14.95;8.20;;;;;;;;;;5037300;28;20021;-74
2023/06/16 03:50:09;;;;;;;27.60;14.93;;;;;;;;;;5035140;28;20097;-74
2023/06/16 03:52:35;;;;;;;16.35;10.20;;;;;;;;;;5035593;28;20048;-71
2023/06/16 03:55:01;;;;;;;13.30;7.15;;;;;;;;;;5033777;28;20041;-73
2023/06/16 03:57:27;;;;;;;13.23;7.65;;;;;;;;;;5032764;28;20108;-73
2023/06/16 03:59:53;;;;;;;13.18;6.90;;;;;;;;;;5033291;28;20155;-73
2023/06/16 04:02:19;;;;;;;12.45;8.18;;;;;;;;;;5031182;28;20026;-73
2023/06/16 04:04:47;;;;;;;12.55;8.38;;;;;;;;;;5034102;28;20438;-73
2023/06/16 04:07:13;;;;;;;11.82;8.38;;;;;;;;;;5032942;28;20700;-71
2023/06/16 04:09:39;;;;;;;18.58;7.93;;;;;;;;;;5033073;28;20071;-73
2023/06/16 04:12:05;;;;;;;16.05;8.23;;;;;;;;;;5032583;28;20021;-73
2023/06/16 04:14:31;;;;;;;15.80;8.35;;;;;;;;;;5033113;28;20083;-74
2023/06/16 04:16:57;;;;;;;13.45;8.23;;;;;;;;;;5034164;28;20038;-73
2023/06/16 04:19:26;;;;;;;10.95;7.43;;;;;;;;;;5033329;28;20029;-73
2023/06/16 04:21:52;;;;;;;16.23;7.97;;;;;;;;;;5032588;28;20033;-73
2023/06/16 04:24:18;;;;;;;14.05;7.47;;;;;;;;;;5030842;28;20036;-73
2023/06/16 04:26:45;;;;;;;18.00;7.63;;;;;;;;;;5033067;28;20021;-73
2023/06/16 04:29:14;;;;;;;15.30;8.60;;;;;;;;;;5032795;28;20494;-73
2023/06/16 04:31:42;;;;;;;12.43;8.15;;;;;;;;;;5033652;28;20033;-72
2023/06/16 04:34:10;;;;;;;10.90;7.45;;;;;;;;;;5033342;28;20434;-74
2023/06/16 04:36:41;;;;;;;12.93;7.80;;;;;;;;;;5036238;28;20025;-76
2023/06/16 04:39:08;;;;;;;15.05;8.13;;;;;;;;;;5039661;28;20548;-74
2023/06/16 04:41:35;;;;;;;15.05;8.77;;;;;;;;;;5032117;28;20041;-74
2023/06/16 04:44:02;;;;;;;19.77;9.57;;;;;;;;;;5033124;28;20068;-74
2023/06/16 04:46:29;;;;;;;17.63;10.00;;;;;;;;;;5046133;28;20021;-74
2023/06/16 04:48:55;;;;;;;20.08;9.68;;;;;;;;;;5032457;28;20033;-73
2023/06/16 04:51:21;;;;;;;15.27;8.98;;;;;;;;;;5033649;28;20017;-72
2023/06/16 04:53:47;;;;;;;13.75;9.05;;;;;;;;;;5037551;28;20026;-75
2023/06/16 04:56:14;;;;;;;18.58;12.35;;;;;;;;;;5032135;28;20498;-73
2023/06/16 04:58:41;;;;;;;23.23;13.48;;;;;;;;;;5034336;28;20026;-74
2023/06/16 05:01:07;;;;;;;20.52;12.70;;;;;;;;;;5032739;28;20034;-73
2023/06/16 05:03:33;;;;;;;16.85;11.20;;;;;;;;;;5040714;28;20025;-73
2023/06/16 05:05:59;;;;;;;16.33;10.15;;;;;;;;;;5032236;28;20163;-74
2023/06/16 05:08:25;;;;;;;19.65;11.00;;;;;;;;;;5037245;28;20479;-74
2023/06/16 05:10:51;;;;;;;15.90;11.45;;;;;;;;;;5033883;28;20063;-74
2023/06/16 05:13:17;;;;;;;18.02;11.80;;;;;;;;;;5034777;28;20535;-74
2023/06/16 05:15:43;;;;;;;16.08;11.02;;;;;;;;;;5032870;28;20033;-76
2023/06/16 05:18:09;;;;;;;18.00;11.60;;;;;;;;;;5032349;28;20033;-73
2023/06/16 05:20:35;;;;;;;16.27;10.60;;;;;;;;;;5032019;28;20037;-73
2023/06/16 05:23:03;;;;;;;18.23;12.05;;;;;;;;;;5033503;28;20087;-75
2023/06/16 05:25:29;;;;;;;21.85;11.80;;;;;;;;;;5031962;28;20022;-76
2023/06/16 05:27:55;;;;;;;14.70;10.52;;;;;;;;;;5033005;28;20029;-76
2023/06/16 05:30:21;;;;;;;20.20;11.35;;;;;;;;;;5035235;28;20105;-76
2023/06/16 05:32:47;;;;;;;19.58;10.90;;;;;;;;;;5037055;28;20025;-74
2023/06/16 05:35:13;;;;;;;22.13;10.73;;;;;;;;;;5034384;28;20021;-78
2023/06/16 05:37:39;;;;;;;19.63;11.00;;;;;;;;;;5033454;28;20033;-74
2023/06/16 05:40:06;;;;;;;17.30;11.30;;;;;;;;;;5038206;28;20124;-76
2023/06/16 05:42:33;;;;;;;18.35;11.85;;;;;;;;;;5031219;28;20030;-77
2023/06/16 05:44:59;;;;;;;15.05;10.48;;;;;;;;;;5036953;28;20030;-76
2023/06/16 05:47:25;;;;;;;20.00;12.32;;;;;;;;;;5034046;28;20036;-77
2023/06/16 05:49:51;;;;;;;23.13;15.05;;;;;;;;;;5023059;28;20021;-76
2023/06/16 05:52:17;;;;;;;23.55;12.80;;;;;;;;;;5030804;28;20036;-75
2023/06/16 05:54:43;;;;;;;21.73;13.13;;;;;;;;;;5033959;28;20326;-74
2023/06/16 05:57:09;;;;;;;21.40;13.18;;;;;;;;;;5037319;28;20054;-73
2023/06/16 05:59:36;;;;;;;23.13;14.05;;;;;;;;;;5036983;28;20094;-74
2023/06/16 06:02:02;;;;;;;19.40;11.90;;;;;;;;;;5032496;28;20899;-74
2023/06/16 06:04:32;;;;;;;19.63;13.02;;;;;;;;;;5031454;28;20033;-73
2023/06/16 06:06:58;;;;;;;22.20;11.68;;;;;;;;;;5032091;28;20054;-74
2023/06/16 06:09:24;;;;;;;16.83;11.70;;;;;;;;;;5032824;28;20547;-76
2023/06/16 06:11:50;;;;;;;22.55;12.10;;;;;;;;;;5031265;28;20025;-72
2023/06/16 06:14:16;;;;;;;18.42;12.52;;;;;;;;;;5031504;28;20030;-70
2023/06/16 06:16:42;;;;;;;18.52;13.00;;;;;;;;;;5031825;28;20036;-73
2023/06/16 06:19:09;;;;;;;27.45;12.43;;;;;;;;;;5032012;28;20040;-72
2023/06/16 06:21:35;;;;;;;23.15;11.38;;;;;;;;;;5031505;28;20079;-73
2023/06/16 06:24:02;;;;;;;20.45;10.88;;;;;;;;;;5031281;28;20491;-73
2023/06/16 06:26:28;;;;;;;25.00;12.68;;;;;;;;;;5031949;28;20087;-71
2023/06/16 06:28:54;;;;;;;16.88;10.05;;;;;;;;;;5031128;28;20021;-72
2023/06/16 06:31:20;;;;;;;22.00;11.95;;;;;;;;;;5031298;28;20112;-71
2023/06/16 06:33:46;;;;;;;14.13;9.45;;;;;;;;;;5030940;28;20112;-72
2023/06/16 06:36:12;;;;;;;18.70;9.15;;;;;;;;;;5030932;28;20033;-71
2023/06/16 06:38:38;;;;;;;17.73;9.38;;;;;;;;;;5030968;28;20034;-73
2023/06/16 06:41:05;;;;;;;15.00;9.73;;;;;;;;;;5030768;28;20036;-71
2023/06/16 06:43:31;;;;;;;16.38;10.40;;;;;;;;;;5030860;28;20489;-72
2023/06/16 06:45:57;;;;;;;19.92;10.38;;;;;;;;;;5031727;28;20021;-72
2023/06/16 06:48:23;;;;;;;20.63;11.13;;;;;;;;;;5034358;28;20372;-73
2023/06/16 06:50:49;;;;;;;18.58;10.85;;;;;;;;;;5034345;28;20026;-72
2023/06/16 06:53:15;;;;;;;16.83;9.88;;;;;;;;;;5032728;28;20029;-72
2023/06/16 06:55:41;;;;;;;24.23;10.82;;;;;;;;;;5033508;28;20061;-72
2023/06/16 06:58:07;;;;;;;29.17;12.70;;;;;;;;;;5033495;28;20075;-71
2023/06/16 07:00:33;;;;;;;16.95;10.32;;;;;;;;;;5033148;28;20025;-71
2023/06/16 07:02:59;;;;;;;36.67;19.85;;;;;;;;;;5032539;28;20036;-73
2023/06/16 07:05:25;;;;;;;21.88;10.88;;;;;;;;;;5032868;28;20026;-72
2023/06/16 07:07:51;;;;;;;24.92;12.38;;;;;;;;;;5032822;28;20026;-73
2023/06/16 07:10:17;;;;;;;41.70;23.75;;;;;;;;;;5033136;28;20033;-71
2023/06/16 07:12:43;;;;;;;40.30;20.95;;;;;;;;;;5032354;28;20041;-72
2023/06/16 07:15:10;;;;;;;28.25;13.77;;;;;;;;;;5034148;28;20036;-72
2023/06/16 07:17:36;;;;;;;33.80;15.70;;;;;;;;;;5034321;28;20022;-77
2023/06/16 07:20:04;;;;;;;28.10;15.57;;;;;;;;;;5034006;28;20037;-72
2023/06/16 07:22:30;;;;;;;29.05;12.90;;;;;;;;;;5032662;28;20034;-72
2023/06/16 07:24:56;;;;;;;27.23;13.48;;;;;;;;;;5033488;28;20029;-73
2023/06/16 07:27:22;;;;;;;18.80;12.43;;;;;;;;;;5032338;28;20017;-73
2023/06/16 07:29:47;;;;;;;29.58;13.73;;;;;;;;;;5033087;28;20083;-72
2023/06/16 07:32:13;;;;;;;26.77;15.82;;;;;;;;;;5032633;28;20026;-74
2023/06/16 07:34:41;;;;;;;23.05;14.85;;;;;;;;;;5032826;28;20106;-73
2023/06/16 07:37:08;;;;;;;27.88;15.63;;;;;;;;;;5032725;28;20589;-73
2023/06/16 07:39:34;;;;;;;25.55;13.80;;;;;;;;;;5032707;28;20376;-74
2023/06/16 07:42:00;;;;;;;23.20;13.82;;;;;;;;;;5031698;28;20101;-74
2023/06/16 07:44:26;;;;;;;23.30;12.23;;;;;;;;;;5032486;28;20125;-72
2023/06/16 07:46:52;;;;;;;21.35;12.93;;;;;;;;;;5029748;28;20022;-73
2023/06/16 07:49:19;;;;;;;26.63;12.82;;;;;;;;;;5032113;28;20032;-73
2023/06/16 07:51:45;;;;;;;20.20;11.27;;;;;;;;;;5031716;28;20067;-73
2023/06/16 07:54:11;;;;;;;16.60;11.23;;;;;;;;;;5031933;28;20105;-73
2023/06/16 07:56:38;;;;;;;23.92;12.38;;;;;;;;;;5032139;28;20525;-73
2023/06/16 07:59:04;;;;;;;21.52;11.30;;;;;;;;;;5033377;28;20376;-73
2023/06/16 08:01:31;;;;;;;22.13;12.07;;;;;;;;;;5033596;28;20030;-74
2023/06/16 08:03:57;;;;;;;23.00;12.82;;;;;;;;;;5033570;28;20039;-74
2023/06/16 08:06:23;;;;;;;20.48;12.10;;;;;;;;;;5034775;28;20100;-73
2023/06/16 08:08:49;;;;;;;26.00;12.63;;;;;;;;;;5033440;28;20031;-75
2023/06/16 08:11:15;;;;;;;19.15;10.73;;;;;;;;;;5035355;28;20117;-74
2023/06/16 08:13:41;;;;;;;18.88;10.93;;;;;;;;;;5032833;28;20479;-72
2023/06/16 08:16:07;;;;;;;19.83;10.73;;;;;;;;;;5033630;28;20040;-77
2023/06/16 08:18:33;;;;;;;18.77;10.82;;;;;;;;;;5030957;28;20034;-74
2023/06/16 08:20:59;;;;;;;13.63;8.43;;;;;;;;;;5033677;28;20036;-72
2023/06/16 08:23:25;;;;;;;22.38;10.20;;;;;;;;;;5033276;28;20030;-73
2023/06/16 08:25:53;;;;;;;19.38;10.00;;;;;;;;;;5033745;28;20032;-73
2023/06/16 08:28:19;;;;;;;22.98;9.75;;;;;;;;;;5034408;28;20096;-76
2023/06/16 08:30:45;;;;;;;19.15;8.48;;;;;;;;;;5033217;28;20018;-73
2023/06/16 08:33:11;;;;;;;16.27;8.60;;;;;;;;;;5032545;28;20022;-74
2023/06/16 08:35:37;;;;;;;14.88;8.05;;;;;;;;;;5032597;28;20151;-72
2023/06/16 08:38:03;;;;;;;22.98;10.30;;;;;;;;;;5032995;28;20108;-74
2023/06/16 08:40:29;;;;;;;29.42;10.93;;;;;;;;;;5032591;28;20032;-72
2023/06/16 08:42:56;;;;;;;22.45;10.50;;;;;;;;;;5030108;28;20029;-73
2023/06/16 08:45:23;;;;;;;20.73;9.25;;;;;;;;;;5033153;28;20156;-72
2023/06/16 08:47:50;;;;;;;22.23;10.25;;;;;;;;;;5034609;28;20024;-73
2023/06/16 08:50:21;;;;;;;22.45;11.02;;;;;;;;;;5041247;28;20029;-74
2023/06/16 08:52:48;;;;;;;21.80;11.43;;;;;;;;;;5032240;28;20029;-73
2023/06/16 08:55:15;;;;;;;15.02;10.13;;;;;;;;;;5033387;28;20026;-73
2023/06/16 08:57:48;;;;;;;22.42;11.05;;;;;;;;;;5033252;28;20479;-72
2023/06/16 09:00:15;;;;;;;15.93;10.00;;;;;;;;;;5034902;28;20037;-74
2023/06/16 09:02:48;;;;;;;17.90;10.95;;;;;;;;;;5034474;28;20486;-74
2023/06/16 09:05:15;;;;;;;16.92;9.40;;;;;;;;;;5034077;28;20438;-75
2023/06/16 09:07:41;;;;;;;18.38;9.27;;;;;;;;;;5032794;28;20021;-72
2023/06/16 09:10:08;;;;;;;20.35;10.05;;;;;;;;;;5033152;28;20479;-73
2023/06/16 09:12:36;;;;;;;17.95;9.73;;;;;;;;;;5032106;28;20643;-72
2023/06/16 09:15:03;;;;;;;18.20;9.10;;;;;;;;;;5033023;28;20026;-72
2023/06/16 09:17:30;;;;;;;16.17;9.27;;;;;;;;;;5034705;28;20101;-73
2023/06/16 09:19:56;;;;;;;14.77;9.90;;;;;;;;;;5034052;28;20125;-76
2023/06/16 09:22:26;;;;;;;17.67;10.38;;;;;;;;;;5032087;28;20025;-75
2023/06/16 09:24:58;;;;;;;16.55;9.70;;;;;;;;;;5034001;28;20025;-74
2023/06/16 09:27:28;;;;;;;17.90;8.25;;;;;;;;;;5033197;28;20087;-75
2023/06/16 09:30:00;;;;;;;15.70;9.13;;;;;;;;;;5032632;28;20031;-76
2023/06/16 09:32:36;;;;;;;18.83;9.30;;;;;;;;;;5033946;28;20517;-74
2023/06/16 09:35:14;;;;;;;15.75;9.63;;;;;;;;;;5032279;28;20025;-75
2023/06/16 09:37:41;;;;;;;13.77;8.57;;;;;;;;;;5032722;28;20033;-74
2023/06/16 09:40:08;;;;;;;17.83;9.00;;;;;;;;;;5032160;28;20068;-76
2023/06/16 09:42:34;;;;;;;22.40;10.02;;;;;;;;;;5031309;28;20026;-75
2023/06/16 09:45:00;;;;;;;19.52;9.40;;;;;;;;;;5031404;28;20068;-76
2023/06/16 09:47:29;;;;;;;18.45;9.43;;;;;;;;;;5031722;28;20471;-74
2023/06/16 09:49:55;;;;;;;24.02;9.60;;;;;;;;;;5031924;28;20064;-72
2023/06/16 09:52:25;;;;;;;17.15;8.65;;;;;;;;;;5030920;28;20032;-73
2023/06/16 09:54:51;;;;;;;15.48;7.72;;;;;;;;;;5031419;28;20389;-73
2023/06/16 09:57:18;;;;;;;15.60;9.07;;;;;;;;;;5031414;28;20494;-74
2023/06/16 09:59:44;;;;;;;14.00;7.97;;;;;;;;;;5031202;28;20053;-74
2023/06/16 10:02:12;;;;;;;17.33;8.50;;;;;;;;;;5033713;28;20033;-74
2023/06/16 10:04:38;;;;;;;17.52;8.60;;;;;;;;;;5032936;28;20478;-73
2023/06/16 10:07:07;;;;;;;17.02;7.45;;;;;;;;;;5031999;28;20025;-76
2023/06/16 10:09:39;;;;;;;13.52;7.68;;;;;;;;;;5029279;28;20112;-74
2023/06/16 10:12:07;;;;;;;19.88;8.38;;;;;;;;;;5030599;28;20024;-73
2023/06/16 10:14:34;;;;;;;19.73;8.88;;;;;;;;;;5029808;28;20029;-73
2023/06/16 10:17:01;;;;;;;13.50;7.78;;;;;;;;;;5030866;28;20714;-74
2023/06/16 10:19:28;;;;;;;14.90;7.63;;;;;;;;;;5031661;28;20444;-74
2023/06/16 10:21:55;;;;;;;19.25;8.98;;;;;;;;;;5033059;28;20061;-74
2023/06/16 10:24:21;;;;;;;33.33;17.95;;;;;;;;;;5035176;28;20032;-74
2023/06/16 10:26:48;;;;;;;23.85;10.85;;;;;;;;;;5035285;28;20491;-74
2023/06/16 10:29:16;;;;;;;16.70;9.25;;;;;;;;;;5035428;28;20053;-78
2023/06/16 10:31:43;;;;;;;18.60;9.05;;;;;;;;;;5035212;28;20021;-74
2023/06/16 10:34:16;;;;;;;16.23;8.63;;;;;;;;;;5035438;28;20383;-74
2023/06/16 10:36:42;;;;;;;14.70;7.97;;;;;;;;;;5035309;28;20025;-74
2023/06/16 10:39:12;;;;;;;18.20;7.80;;;;;;;;;;5035544;28;20163;-74
2023/06/16 10:41:48;;;;;;;14.30;7.80;;;;;;;;;;5037011;28;20025;-75
2023/06/16 10:44:31;;;;;;;15.50;7.45;;;;;;;;;;5036250;28;20132;-74
2023/06/16 10:47:05;;;;;;;19.63;8.25;;;;;;;;;;5036237;28;20029;-75
2023/06/16 10:49:32;;;;;;;17.02;7.82;;;;;;;;;;5036453;28;20029;-75
2023/06/16 10:52:02;;;;;;;14.35;7.38;;;;;;;;;;5034264;28;20029;-73
2023/06/16 10:54:37;;;;;;;15.52;8.10;;;;;;;;;;5033728;28;20052;-73
2023/06/16 10:57:10;;;;;;;22.10;9.00;;;;;;;;;;5034851;28;20025;-74
2023/06/16 11:00:10;;;;;;;13.73;7.47;;;;;;;;;;5033451;28;20120;-74
2023/06/16 11:02:37;;;;;;;15.48;8.63;;;;;;;;;;5034491;28;20025;-73
2023/06/16 11:05:12;;;;;;;13.80;7.40;;;;;;;;;;5034355;28;20122;-74
2023/06/16 11:07:40;;;;;;;21.52;7.82;;;;;;;;;;5034520;28;20032;-73
2023/06/16 11:10:25;;;;;;;20.90;8.98;;;;;;;;;;5036098;28;20112;-73
2023/06/16 11:12:51;;;;;;;18.63;7.22;;;;;;;;;;5033609;28;20089;-73
2023/06/16 11:15:19;;;;;;;12.95;6.97;;;;;;;;;;5034617;28;20037;-74
2023/06/16 11:17:47;;;;;;;18.15;8.65;;;;;;;;;;5034537;28;20072;-75
2023/06/16 11:20:14;;;;;;;14.82;7.35;;;;;;;;;;5035029;28;20483;-74
2023/06/16 11:22:40;;;;;;;13.10;7.75;;;;;;;;;;5033912;28;20063;-75
2023/06/16 11:25:07;;;;;;;16.70;8.43;;;;;;;;;;5035279;28;20097;-77
2023/06/16 11:27:33;;;;;;;19.25;7.03;;;;;;;;;;5035118;28;20028;-76
2023/06/16 11:30:00;;;;;;;15.35;8.35;;;;;;;;;;5034094;28;20029;-76
2023/06/16 11:32:28;;;;;;;16.67;9.00;;;;;;;;;;5032390;28;20112;-75
2023/06/16 11:34:57;;;;;;;14.65;6.85;;;;;;;;;;5034582;28;20025;-75
2023/06/16 11:37:39;;;;;;;19.00;7.82;;;;;;;;;;5034837;28;20032;-75
2023/06/16 11:40:05;;;;;;;19.33;7.82;;;;;;;;;;5034496;28;20444;-75
2023/06/16 11:42:31;;;;;;;24.20;7.95;;;;;;;;;;5034078;28;20044;-77
2023/06/16 11:44:57;;;;;;;15.43;8.27;;;;;;;;;;5035294;28;20056;-76
2023/06/16 11:47:24;;;;;;;14.30;7.60;;;;;;;;;;5034251;28;20104;-77
2023/06/16 11:49:50;;;;;;;18.42;8.70;;;;;;;;;;5034041;28;20022;-75
2023/06/16 11:52:16;;;;;;;15.05;9.02;;;;;;;;;;5033542;28;20108;-73
2023/06/16 11:54:42;;;;;;;19.98;10.02;;;;;;;;;;5033736;28;20052;-76
2023/06/16 11:57:09;;;;;;;15.55;8.05;;;;;;;;;;5033977;28;20391;-73
2023/06/16 11:59:35;;;;;;;15.35;7.93;;;;;;;;;;5033701;28;20026;-75
2023/06/16 12:02:03;;;;;;;32.20;9.73;;;;;;;;;;5033436;28;20562;-75
2023/06/16 12:04:29;;;;;;;20.58;10.50;;;;;;;;;;5033702;28;20051;-76
2023/06/16 12:06:59;;;;;;;21.33;10.07;;;;;;;;;;5033738;28;20028;-76
2023/06/16 12:09:36;;;;;;;25.02;10.90;;;;;;;;;;5033450;28;20029;-74
2023/06/16 12:12:05;;;;;;;20.92;10.20;;;;;;;;;;5033384;28;20026;-73
2023/06/16 12:14:35;;;;;;;17.73;9.90;;;;;;;;;;5033650;28;20485;-74
2023/06/16 12:17:02;;;;;;;18.25;10.10;;;;;;;;;;5033641;28;20029;-72
2023/06/16 12:19:28;;;;;;;26.73;10.90;;;;;;;;;;5033323;28;20108;-76
2023/06/16 12:22:03;;;;;;;22.40;10.30;;;;;;;;;;5033474;28;20075;-74
2023/06/16 12:24:29;;;;;;;20.25;10.43;;;;;;;;;;5034664;28;20087;-75
2023/06/16 12:26:55;;;;;;;21.30;11.10;;;;;;;;;;5033342;28;20054;-75
2023/06/16 12:29:26;;;;;;;21.00;10.07;;;;;;;;;;5034112;28;20067;-75
2023/06/16 12:31:53;;;;;;;23.23;9.30;;;;;;;;;;5033401;28;20303;-73
2023/06/16 12:34:33;;;;;;;17.55;9.65;;;;;;;;;;5036137;28;20479;-72
2023/06/16 12:37:07;;;;;;;14.10;9.05;;;;;;;;;;5033854;28;20025;-74
2023/06/16 12:39:33;;;;;;;;;;;;;;;;;;5033605;28;20031;-73
2023/06/16 12:42:10;;;;;;;20.15;9.30;;;;;;;;;;5034076;28;19905;-75
2023/06/16 12:44:46;;;;;;;19.02;9.73;;;;;;;;;;5033770;28;20053;-72
2023/06/16 12:47:13;;;;;;;18.45;8.45;;;;;;;;;;5033213;28;20029;-74
2023/06/16 12:49:39;;;;;;;18.63;9.07;;;;;;;;;;5031830;28;20036;-76
2023/06/16 12:52:08;;;;;;;21.88;9.35;;;;;;;;;;5037576;28;20025;-74
2023/06/16 12:54:35;;;;;;;21.25;9.13;;;;;;;;;;5032491;28;20029;-74
2023/06/16 12:57:01;;;;;;;14.60;7.93;;;;;;;;;;5034832;28;20030;-74
2023/06/16 12:59:28;;;;;;;18.13;7.47;;;;;;;;;;5033868;28;20092;-74
2023/06/16 13:01:54;;;;;;;15.95;7.72;;;;;;;;;;5033208;28;20018;-72
2023/06/16 13:04:20;;;;;;;14.30;7.63;;;;;;;;;;5033178;28;20136;-73
2023/06/16 13:06:46;;;;;;;22.48;8.90;;;;;;;;;;5040678;28;20034;-73
2023/06/16 13:09:13;;;;;;;18.45;8.13;;;;;;;;;;5042441;28;20434;-73
2023/06/16 13:11:39;;;;;;;17.00;7.53;;;;;;;;;;5032749;28;20025;-73
2023/06/16 13:14:05;;;;;;;18.48;7.63;;;;;;;;;;5032478;28;20080;-73
2023/06/16 13:16:32;;;;;;;13.15;7.07;;;;;;;;;;5034609;28;20037;-72
2023/06/16 13:18:58;;;;;;;14.95;8.23;;;;;;;;;;5036059;28;20037;-73
2023/06/16 13:21:24;;;;;;;13.63;7.60;;;;;;;;;;5033042;28;20535;-73
2023/06/16 13:23:50;;;;;;;13.32;7.22;;;;;;;;;;5031370;28;20026;-73
2023/06/16 13:26:22;;;;;;;17.70;7.63;;;;;;;;;;5034661;28;20018;-73
2023/06/16 13:28:48;;;;;;;17.52;6.82;;;;;;;;;;5032236;28;20021;-73
2023/06/16 13:31:14;;;;;;;19.35;7.32;;;;;;;;;;5032694;28;20100;-74
2023/06/16 13:33:41;;;;;;;20.02;8.30;;;;;;;;;;5036788;28;20032;-72
2023/06/16 13:36:08;;;;;;;17.70;7.03;;;;;;;;;;5033266;28;20048;-72
2023/06/16 13:38:34;;;;;;;11.80;7.20;;;;;;;;;;5034030;28;20498;-74
2023/06/16 13:41:00;;;;;;;19.08;7.40;;;;;;;;;;5033742;28;20056;-73
2023/06/16 13:43:27;;;;;;;16.30;6.50;;;;;;;;;;5036808;28;20449;-75
2023/06/16 13:45:54;;;;;;;14.82;6.65;;;;;;;;;;5031020;28;20479;-75
2023/06/16 13:48:20;;;;;;;16.98;6.90;;;;;;;;;;5032909;28;20351;-74
2023/06/16 13:50:46;;;;;;;20.52;7.90;;;;;;;;;;5033608;28;20033;-74
2023/06/16 13:53:12;;;;;;;15.57;6.53;;;;;;;;;;5034332;28;20032;-73
2023/06/16 13:55:38;;;;;;;11.23;6.05;;;;;;;;;;5030771;28;20040;-76
2023/06/16 13:58:05;;;;;;;12.18;6.68;;;;;;;;;;5034924;28;20051;-74
2023/06/16 14:00:31;;;;;;;17.05;7.80;;;;;;;;;;5035502;28;20025;-76
2023/06/16 14:02:57;;;;;;;15.98;5.82;;;;;;;;;;5030749;28;20479;-77
2023/06/16 14:05:23;;;;;;;11.05;5.32;;;;;;;;;;5030253;28;20112;-75
2023/06/16 14:07:50;;;;;;;18.13;6.78;;;;;;;;;;5031437;28;20026;-74
2023/06/16 14:10:16;;;;;;;15.95;7.30;;;;;;;;;;5031702;28;20175;-75
2023/06/16 14:12:45;;;;;;;14.85;5.85;;;;;;;;;;5030750;28;20078;-74
2023/06/16 14:15:11;;;;;;;13.68;6.47;;;;;;;;;;5031571;28;20503;-74
2023/06/16 14:17:38;;;;;;;12.32;5.47;;;;;;;;;;5031281;28;20033;-74
2023/06/16 14:20:07;;;;;;;16.70;7.43;;;;;;;;;;5031313;28;20383;-73
2023/06/16 14:22:34;;;;;;;12.82;7.85;;;;;;;;;;5030932;28;20116;-73
2023/06/16 14:25:00;;;;;;;18.70;8.73;;;;;;;;;;5031091;28;20067;-73
2023/06/16 14:27:26;;;;;;;17.95;8.60;;;;;;;;;;5031042;28;20152;-75
2023/06/16 14:29:52;;;;;;;11.98;8.63;;;;;;;;;;5030449;28;20049;-74